Portada
METAR-TAF:

METAR-TAF

Aeropuertos :

Aeropuerto Internacional Louis Armstrong

Nueva Orleans, Luisiana, Estados Unidos

latitud: 29-59-34N, longitud: 090-15-03W, altitud: 1 m

Observación

El informe se hizo hace 36 minutos, a las 23:53 UTC
Viento calma
Temperatura 12°C
Humedad 62%
Presión 1022 hPa
Visibilidad: 16.1 km
Cielo despejado

METAR: KMSY 162353Z 00000KT 10SM CLR 12/05 A3019 RMK AO2 SLP226 T01220050 10178 20117 55000

Hora: 18:29 (00:29 UTC)

Pronóstico

El informe se hizo hace 1 hora y 9 minutos, a las 23:20 UTC
Pronóstico válido del 17 a las 00 UTC al 18 a las 06 UTC
Viento 3 kt con dirección variable
Visibilidad: 10 km
Cielo despejado

TAF: KMSY 162320Z 1700/1806 VRB03KT P6SM SKC

Observaciones y pronósticos meteorológicos de más de 4000 aeropuertos (mensajes METAR y TAF).

Los puntos amarillos y rojos representan las estaciones disponibles.

Ponga el ratón en el punto deseado para ver el nombre de la estación.

Haga clic para ver las observaciones y los pronósticos meteorológicos.

Para cambiar el mapa : haga clic en los botones verdes con una cruz de color negro para hacer un zoom, en el botón verde con un guión para alejar o en las flechas verdes para mapas adyacentes.


METAR-TAF: